Terminal Aerodrome Forecast
Issued by NWS

Home | Current Version | Previous Version | Text Only | Print | Product List | Glossary On
Versions: 1 2 3 4 5 6 7 8 9 10 11 12 13 14 15
000
FTUS43 KICT 132300
TAFSLN
TAF
KSLN 132322Z 1400/1424 16008KT P6SM SCT060
      TEMPO 1400/1403 BKN060
     FM141500 17014G20KT P6SM BKN200=

USA.gov is the U.S. government's official web portal to all federal, state and local government web resources and services.